sensor_id;sensor_type;location;lat;lon;timestamp;P1;durP1;ratioP1;P2;durP2;ratioP2
21941;SDS011;11135;54.192;15.670;2023-02-13T00:00:43;8.00;;;4.32;;
21941;SDS011;11135;54.192;15.670;2023-02-13T00:03:58;10.93;;;4.88;;
21941;SDS011;11135;54.192;15.670;2023-02-13T00:07:04;8.45;;;5.15;;
21941;SDS011;11135;54.192;15.670;2023-02-13T00:10:09;7.28;;;3.80;;
21941;SDS011;11135;54.192;15.670;2023-02-13T00:13:17;7.70;;;4.25;;
21941;SDS011;11135;54.192;15.670;2023-02-13T00:19:36;6.22;;;3.10;;
21941;SDS011;11135;54.192;15.670;2023-02-13T00:22:41;6.90;;;4.47;;
21941;SDS011;11135;54.192;15.670;2023-02-13T00:25:47;8.55;;;5.25;;
21941;SDS011;11135;54.192;15.670;2023-02-13T00:28:55;10.27;;;4.88;;
21941;SDS011;11135;54.192;15.670;2023-02-13T00:32:01;6.70;;;3.25;;
21941;SDS011;11135;54.192;15.670;2023-02-13T00:35:07;6.35;;;3.05;;
21941;SDS011;11135;54.192;15.670;2023-02-13T00:38:12;8.60;;;2.97;;
21941;SDS011;11135;54.192;15.670;2023-02-13T00:41:17;5.20;;;2.72;;
21941;SDS011;11135;54.192;15.670;2023-02-13T00:44:25;5.57;;;2.80;;
21941;SDS011;11135;54.192;15.670;2023-02-13T00:47:33;6.78;;;2.67;;
21941;SDS011;11135;54.192;15.670;2023-02-13T00:50:38;4.80;;;2.75;;
21941;SDS011;11135;54.192;15.670;2023-02-13T00:53:43;7.50;;;3.30;;
21941;SDS011;11135;54.192;15.670;2023-02-13T00:56:49;5.80;;;3.22;;
21941;SDS011;11135;54.192;15.670;2023-02-13T00:59:57;5.80;;;2.80;;
21941;SDS011;11135;54.192;15.670;2023-02-13T01:03:03;8.07;;;3.95;;
21941;SDS011;11135;54.192;15.670;2023-02-13T01:06:08;3.03;;;1.95;;
21941;SDS011;11135;54.192;15.670;2023-02-13T01:09:14;5.63;;;2.60;;
21941;SDS011;11135;54.192;15.670;2023-02-13T01:12:21;4.65;;;2.15;;
21941;SDS011;11135;54.192;15.670;2023-02-13T01:15:29;5.97;;;3.05;;
21941;SDS011;11135;54.192;15.670;2023-02-13T01:18:34;4.70;;;2.08;;
21941;SDS011;11135;54.192;15.670;2023-02-13T01:21:41;5.78;;;2.50;;
21941;SDS011;11135;54.192;15.670;2023-02-13T01:24:48;5.13;;;2.58;;
21941;SDS011;11135;54.192;15.670;2023-02-13T01:27:53;3.30;;;2.13;;
21941;SDS011;11135;54.192;15.670;2023-02-13T01:31:01;5.72;;;2.65;;
21941;SDS011;11135;54.192;15.670;2023-02-13T01:34:07;3.58;;;2.00;;
21941;SDS011;11135;54.192;15.670;2023-02-13T01:37:13;4.75;;;3.10;;
21941;SDS011;11135;54.192;15.670;2023-02-13T01:40:18;4.78;;;2.53;;
21941;SDS011;11135;54.192;15.670;2023-02-13T01:43:41;4.88;;;2.30;;
21941;SDS011;11135;54.192;15.670;2023-02-13T01:46:49;4.22;;;2.22;;
21941;SDS011;11135;54.192;15.670;2023-02-13T01:49:59;5.18;;;2.00;;
21941;SDS011;11135;54.192;15.670;2023-02-13T01:53:09;3.13;;;1.52;;
21941;SDS011;11135;54.192;15.670;2023-02-13T01:56:16;3.80;;;2.00;;
21941;SDS011;11135;54.192;15.670;2023-02-13T01:59:23;6.40;;;2.17;;
21941;SDS011;11135;54.192;15.670;2023-02-13T02:02:33;3.10;;;1.80;;
21941;SDS011;11135;54.192;15.670;2023-02-13T02:05:41;5.20;;;2.22;;
21941;SDS011;11135;54.192;15.670;2023-02-13T02:08:46;7.47;;;2.25;;
21941;SDS011;11135;54.192;15.670;2023-02-13T02:11:53;4.72;;;2.10;;
21941;SDS011;11135;54.192;15.670;2023-02-13T02:15:00;7.50;;;2.47;;
21941;SDS011;11135;54.192;15.670;2023-02-13T02:18:08;4.30;;;2.40;;
21941;SDS011;11135;54.192;15.670;2023-02-13T02:21:29;4.93;;;2.22;;
21941;SDS011;11135;54.192;15.670;2023-02-13T02:24:46;5.13;;;2.03;;
21941;SDS011;11135;54.192;15.670;2023-02-13T02:28:05;6.20;;;2.67;;
21941;SDS011;11135;54.192;15.670;2023-02-13T02:31:18;5.47;;;1.92;;
21941;SDS011;11135;54.192;15.670;2023-02-13T02:34:31;4.47;;;1.58;;
21941;SDS011;11135;54.192;15.670;2023-02-13T02:37:41;3.53;;;1.77;;
21941;SDS011;11135;54.192;15.670;2023-02-13T02:40:50;5.95;;;2.55;;
21941;SDS011;11135;54.192;15.670;2023-02-13T02:44:02;5.20;;;1.58;;
21941;SDS011;11135;54.192;15.670;2023-02-13T02:47:12;4.22;;;2.20;;
21941;SDS011;11135;54.192;15.670;2023-02-13T02:53:40;5.25;;;1.90;;
21941;SDS011;11135;54.192;15.670;2023-02-13T02:56:47;5.40;;;2.00;;
21941;SDS011;11135;54.192;15.670;2023-02-13T02:59:57;5.40;;;2.15;;
21941;SDS011;11135;54.192;15.670;2023-02-13T03:03:16;4.00;;;2.00;;
21941;SDS011;11135;54.192;15.670;2023-02-13T03:06:36;4.53;;;2.83;;
21941;SDS011;11135;54.192;15.670;2023-02-13T03:09:47;4.63;;;1.80;;
21941;SDS011;11135;54.192;15.670;2023-02-13T03:13:06;7.80;;;2.22;;
21941;SDS011;11135;54.192;15.670;2023-02-13T03:16:26;3.95;;;1.63;;
21941;SDS011;11135;54.192;15.670;2023-02-13T03:19:47;6.57;;;2.25;;
21941;SDS011;11135;54.192;15.670;2023-02-13T03:23:10;4.03;;;2.10;;
21941;SDS011;11135;54.192;15.670;2023-02-13T03:26:25;3.10;;;1.90;;
21941;SDS011;11135;54.192;15.670;2023-02-13T03:29:48;6.05;;;2.28;;
21941;SDS011;11135;54.192;15.670;2023-02-13T03:33:24;5.22;;;2.28;;
21941;SDS011;11135;54.192;15.670;2023-02-13T03:36:36;3.67;;;1.95;;
21941;SDS011;11135;54.192;15.670;2023-02-13T03:39:58;2.63;;;1.63;;
21941;SDS011;11135;54.192;15.670;2023-02-13T03:43:10;4.28;;;1.75;;
21941;SDS011;11135;54.192;15.670;2023-02-13T03:46:17;6.40;;;2.42;;
21941;SDS011;11135;54.192;15.670;2023-02-13T03:49:25;3.97;;;1.95;;
21941;SDS011;11135;54.192;15.670;2023-02-13T03:52:44;5.30;;;2.00;;
21941;SDS011;11135;54.192;15.670;2023-02-13T03:55:50;4.15;;;2.42;;
21941;SDS011;11135;54.192;15.670;2023-02-13T03:59:15;5.88;;;2.40;;
21941;SDS011;11135;54.192;15.670;2023-02-13T04:02:23;3.47;;;2.13;;
21941;SDS011;11135;54.192;15.670;2023-02-13T04:05:29;4.75;;;2.03;;
21941;SDS011;11135;54.192;15.670;2023-02-13T04:08:38;3.53;;;1.58;;
21941;SDS011;11135;54.192;15.670;2023-02-13T04:11:46;6.38;;;1.73;;
21941;SDS011;11135;54.192;15.670;2023-02-13T04:14:57;3.80;;;2.00;;
21941;SDS011;11135;54.192;15.670;2023-02-13T04:18:05;5.28;;;1.98;;
21941;SDS011;11135;54.192;15.670;2023-02-13T04:21:12;3.58;;;1.63;;
21941;SDS011;11135;54.192;15.670;2023-02-13T04:24:17;4.13;;;1.80;;
21941;SDS011;11135;54.192;15.670;2023-02-13T04:27:23;2.58;;;1.40;;
21941;SDS011;11135;54.192;15.670;2023-02-13T04:30:32;3.13;;;1.27;;
21941;SDS011;11135;54.192;15.670;2023-02-13T04:33:39;4.07;;;1.30;;
21941;SDS011;11135;54.192;15.670;2023-02-13T04:36:44;2.80;;;1.48;;
21941;SDS011;11135;54.192;15.670;2023-02-13T04:39:51;4.05;;;2.10;;
21941;SDS011;11135;54.192;15.670;2023-02-13T04:42:57;3.85;;;2.15;;
21941;SDS011;11135;54.192;15.670;2023-02-13T04:46:05;4.45;;;1.58;;
21941;SDS011;11135;54.192;15.670;2023-02-13T04:49:10;5.22;;;2.17;;
21941;SDS011;11135;54.192;15.670;2023-02-13T04:52:16;4.43;;;1.83;;
21941;SDS011;11135;54.192;15.670;2023-02-13T04:55:21;1.83;;;1.30;;
21941;SDS011;11135;54.192;15.670;2023-02-13T04:58:29;3.95;;;1.80;;
21941;SDS011;11135;54.192;15.670;2023-02-13T05:01:37;7.15;;;1.70;;
21941;SDS011;11135;54.192;15.670;2023-02-13T05:04:42;5.65;;;2.33;;
21941;SDS011;11135;54.192;15.670;2023-02-13T05:07:47;4.70;;;2.25;;
21941;SDS011;11135;54.192;15.670;2023-02-13T05:10:54;4.55;;;2.10;;
21941;SDS011;11135;54.192;15.670;2023-02-13T05:14:00;4.25;;;2.08;;
21941;SDS011;11135;54.192;15.670;2023-02-13T05:17:09;4.80;;;2.03;;
21941;SDS011;11135;54.192;15.670;2023-02-13T05:20:15;4.90;;;2.13;;
21941;SDS011;11135;54.192;15.670;2023-02-13T05:23:21;6.82;;;2.60;;
21941;SDS011;11135;54.192;15.670;2023-02-13T05:26:27;6.97;;;2.80;;
21941;SDS011;11135;54.192;15.670;2023-02-13T05:29:32;4.78;;;2.58;;
21941;SDS011;11135;54.192;15.670;2023-02-13T05:32:40;6.60;;;2.50;;
21941;SDS011;11135;54.192;15.670;2023-02-13T05:35:48;6.25;;;2.90;;
21941;SDS011;11135;54.192;15.670;2023-02-13T05:38:56;4.95;;;2.88;;
21941;SDS011;11135;54.192;15.670;2023-02-13T05:42:01;4.18;;;1.73;;
21941;SDS011;11135;54.192;15.670;2023-02-13T05:45:09;5.55;;;2.35;;
21941;SDS011;11135;54.192;15.670;2023-02-13T05:48:17;6.85;;;2.47;;
21941;SDS011;11135;54.192;15.670;2023-02-13T05:51:24;6.30;;;3.05;;
21941;SDS011;11135;54.192;15.670;2023-02-13T05:54:30;6.32;;;3.15;;
21941;SDS011;11135;54.192;15.670;2023-02-13T05:57:37;6.47;;;2.67;;
21941;SDS011;11135;54.192;15.670;2023-02-13T06:00:42;6.35;;;3.10;;
21941;SDS011;11135;54.192;15.670;2023-02-13T06:03:50;8.30;;;3.22;;
21941;SDS011;11135;54.192;15.670;2023-02-13T06:06:59;5.03;;;2.30;;
21941;SDS011;11135;54.192;15.670;2023-02-13T06:10:07;7.18;;;2.75;;
21941;SDS011;11135;54.192;15.670;2023-02-13T06:13:14;5.82;;;2.78;;
21941;SDS011;11135;54.192;15.670;2023-02-13T06:16:22;6.43;;;3.05;;
21941;SDS011;11135;54.192;15.670;2023-02-13T06:19:30;5.35;;;2.38;;
21941;SDS011;11135;54.192;15.670;2023-02-13T06:22:35;4.90;;;2.42;;
21941;SDS011;11135;54.192;15.670;2023-02-13T06:25:41;8.63;;;2.53;;
21941;SDS011;11135;54.192;15.670;2023-02-13T06:28:46;3.88;;;2.03;;
21941;SDS011;11135;54.192;15.670;2023-02-13T06:31:53;6.28;;;2.75;;
21941;SDS011;11135;54.192;15.670;2023-02-13T06:35:04;5.03;;;2.63;;
21941;SDS011;11135;54.192;15.670;2023-02-13T06:38:09;7.38;;;2.30;;
21941;SDS011;11135;54.192;15.670;2023-02-13T06:41:16;10.18;;;3.63;;
21941;SDS011;11135;54.192;15.670;2023-02-13T06:44:21;7.85;;;3.17;;
21941;SDS011;11135;54.192;15.670;2023-02-13T06:47:30;6.78;;;2.50;;
21941;SDS011;11135;54.192;15.670;2023-02-13T06:50:41;8.00;;;2.47;;
21941;SDS011;11135;54.192;15.670;2023-02-13T06:53:47;5.65;;;2.35;;
21941;SDS011;11135;54.192;15.670;2023-02-13T06:56:52;4.53;;;2.47;;
21941;SDS011;11135;54.192;15.670;2023-02-13T06:59:57;6.20;;;2.55;;
21941;SDS011;11135;54.192;15.670;2023-02-13T07:03:06;4.30;;;2.08;;
21941;SDS011;11135;54.192;15.670;2023-02-13T07:06:18;10.57;;;3.67;;
21941;SDS011;11135;54.192;15.670;2023-02-13T07:09:24;6.60;;;2.30;;
21941;SDS011;11135;54.192;15.670;2023-02-13T07:12:31;4.65;;;2.13;;
21941;SDS011;11135;54.192;15.670;2023-02-13T07:15:37;3.58;;;2.17;;
21941;SDS011;11135;54.192;15.670;2023-02-13T07:18:42;6.03;;;3.42;;
21941;SDS011;11135;54.192;15.670;2023-02-13T07:21:53;6.25;;;2.15;;
21941;SDS011;11135;54.192;15.670;2023-02-13T07:24:58;5.13;;;2.47;;
21941;SDS011;11135;54.192;15.670;2023-02-13T07:28:08;5.47;;;2.58;;
21941;SDS011;11135;54.192;15.670;2023-02-13T07:31:14;5.55;;;2.20;;
21941;SDS011;11135;54.192;15.670;2023-02-13T07:34:22;6.60;;;1.50;;
21941;SDS011;11135;54.192;15.670;2023-02-13T07:37:30;6.47;;;2.40;;
21941;SDS011;11135;54.192;15.670;2023-02-13T07:40:35;7.65;;;2.38;;
21941;SDS011;11135;54.192;15.670;2023-02-13T07:43:41;4.07;;;2.03;;
21941;SDS011;11135;54.192;15.670;2023-02-13T07:46:48;4.60;;;2.13;;
21941;SDS011;11135;54.192;15.670;2023-02-13T07:49:53;4.80;;;2.28;;
21941;SDS011;11135;54.192;15.670;2023-02-13T07:53:03;4.97;;;1.60;;
21941;SDS011;11135;54.192;15.670;2023-02-13T07:56:08;4.90;;;2.10;;
21941;SDS011;11135;54.192;15.670;2023-02-13T07:59:15;3.35;;;1.83;;
21941;SDS011;11135;54.192;15.670;2023-02-13T08:02:21;6.90;;;1.85;;
21941;SDS011;11135;54.192;15.670;2023-02-13T08:05:26;6.25;;;2.55;;
21941;SDS011;11135;54.192;15.670;2023-02-13T08:08:34;6.75;;;2.35;;
21941;SDS011;11135;54.192;15.670;2023-02-13T08:11:40;10.43;;;2.50;;
21941;SDS011;11135;54.192;15.670;2023-02-13T08:14:57;8.15;;;2.75;;
21941;SDS011;11135;54.192;15.670;2023-02-13T08:18:04;8.30;;;2.67;;
21941;SDS011;11135;54.192;15.670;2023-02-13T08:21:09;10.35;;;2.60;;
21941;SDS011;11135;54.192;15.670;2023-02-13T08:24:18;4.28;;;1.70;;
21941;SDS011;11135;54.192;15.670;2023-02-13T08:27:25;5.18;;;1.70;;
21941;SDS011;11135;54.192;15.670;2023-02-13T08:30:31;6.05;;;2.15;;
21941;SDS011;11135;54.192;15.670;2023-02-13T08:33:36;5.70;;;1.88;;
21941;SDS011;11135;54.192;15.670;2023-02-13T08:36:43;7.95;;;1.98;;
21941;SDS011;11135;54.192;15.670;2023-02-13T08:39:51;8.65;;;2.83;;
21941;SDS011;11135;54.192;15.670;2023-02-13T08:42:59;4.07;;;2.25;;
21941;SDS011;11135;54.192;15.670;2023-02-13T08:46:09;6.13;;;1.88;;
21941;SDS011;11135;54.192;15.670;2023-02-13T08:49:16;8.07;;;1.90;;
21941;SDS011;11135;54.192;15.670;2023-02-13T08:52:21;6.15;;;2.50;;
21941;SDS011;11135;54.192;15.670;2023-02-13T08:55:31;6.88;;;3.92;;
21941;SDS011;11135;54.192;15.670;2023-02-13T08:58:38;4.07;;;1.85;;
21941;SDS011;11135;54.192;15.670;2023-02-13T09:01:44;4.50;;;1.73;;
21941;SDS011;11135;54.192;15.670;2023-02-13T09:04:50;5.55;;;1.77;;
21941;SDS011;11135;54.192;15.670;2023-02-13T09:07:58;5.40;;;2.17;;
21941;SDS011;11135;54.192;15.670;2023-02-13T09:11:06;8.52;;;2.10;;
21941;SDS011;11135;54.192;15.670;2023-02-13T09:14:11;5.80;;;1.58;;
21941;SDS011;11135;54.192;15.670;2023-02-13T09:17:17;4.35;;;1.80;;
21941;SDS011;11135;54.192;15.670;2023-02-13T09:20:24;5.72;;;1.73;;
21941;SDS011;11135;54.192;15.670;2023-02-13T09:23:29;5.20;;;1.48;;
21941;SDS011;11135;54.192;15.670;2023-02-13T09:26:38;4.50;;;1.48;;
21941;SDS011;11135;54.192;15.670;2023-02-13T09:29:43;4.47;;;1.60;;
21941;SDS011;11135;54.192;15.670;2023-02-13T09:32:52;10.98;;;3.70;;
21941;SDS011;11135;54.192;15.670;2023-02-13T09:35:57;4.28;;;2.40;;
21941;SDS011;11135;54.192;15.670;2023-02-13T09:39:03;5.05;;;1.95;;
21941;SDS011;11135;54.192;15.670;2023-02-13T09:42:16;7.40;;;2.20;;
21941;SDS011;11135;54.192;15.670;2023-02-13T09:45:22;7.88;;;2.13;;
21941;SDS011;11135;54.192;15.670;2023-02-13T09:48:27;5.40;;;1.50;;
21941;SDS011;11135;54.192;15.670;2023-02-13T09:51:35;4.68;;;2.08;;
21941;SDS011;11135;54.192;15.670;2023-02-13T09:54:40;6.35;;;1.83;;
21941;SDS011;11135;54.192;15.670;2023-02-13T09:57:53;8.63;;;2.47;;
21941;SDS011;11135;54.192;15.670;2023-02-13T10:01:04;10.45;;;3.20;;
21941;SDS011;11135;54.192;15.670;2023-02-13T10:04:20;5.88;;;2.90;;
21941;SDS011;11135;54.192;15.670;2023-02-13T10:07:29;5.70;;;1.70;;
21941;SDS011;11135;54.192;15.670;2023-02-13T10:10:45;3.63;;;1.83;;
21941;SDS011;11135;54.192;15.670;2023-02-13T10:14:00;7.35;;;1.95;;
21941;SDS011;11135;54.192;15.670;2023-02-13T10:17:06;5.82;;;1.73;;
21941;SDS011;11135;54.192;15.670;2023-02-13T10:20:16;3.65;;;1.40;;
21941;SDS011;11135;54.192;15.670;2023-02-13T10:23:26;2.70;;;1.50;;
21941;SDS011;11135;54.192;15.670;2023-02-13T10:26:32;7.15;;;1.88;;
21941;SDS011;11135;54.192;15.670;2023-02-13T10:29:55;7.85;;;2.15;;
21941;SDS011;11135;54.192;15.670;2023-02-13T10:33:15;4.75;;;1.67;;
21941;SDS011;11135;54.192;15.670;2023-02-13T10:36:25;3.60;;;1.58;;
21941;SDS011;11135;54.192;15.670;2023-02-13T10:39:33;5.90;;;2.40;;
21941;SDS011;11135;54.192;15.670;2023-02-13T10:42:42;8.35;;;3.15;;
21941;SDS011;11135;54.192;15.670;2023-02-13T10:45:58;7.82;;;2.65;;
21941;SDS011;11135;54.192;15.670;2023-02-13T10:49:11;7.40;;;3.20;;
21941;SDS011;11135;54.192;15.670;2023-02-13T10:52:25;6.60;;;2.80;;
21941;SDS011;11135;54.192;15.670;2023-02-13T10:59:05;9.38;;;2.70;;
21941;SDS011;11135;54.192;15.670;2023-02-13T11:02:18;8.20;;;2.97;;
21941;SDS011;11135;54.192;15.670;2023-02-13T11:05:27;9.48;;;4.25;;
21941;SDS011;11135;54.192;15.670;2023-02-13T11:08:34;8.40;;;4.15;;
21941;SDS011;11135;54.192;15.670;2023-02-13T11:11:44;8.40;;;4.03;;
21941;SDS011;11135;54.192;15.670;2023-02-13T11:14:52;5.75;;;3.33;;
21941;SDS011;11135;54.192;15.670;2023-02-13T11:18:03;8.95;;;4.50;;
21941;SDS011;11135;54.192;15.670;2023-02-13T11:21:19;9.55;;;3.50;;
21941;SDS011;11135;54.192;15.670;2023-02-13T11:24:25;9.98;;;4.68;;
21941;SDS011;11135;54.192;15.670;2023-02-13T11:27:32;6.25;;;3.22;;
21941;SDS011;11135;54.192;15.670;2023-02-13T11:30:39;8.57;;;3.38;;
21941;SDS011;11135;54.192;15.670;2023-02-13T11:33:48;9.73;;;4.03;;
21941;SDS011;11135;54.192;15.670;2023-02-13T11:37:13;7.57;;;3.33;;
21941;SDS011;11135;54.192;15.670;2023-02-13T11:40:28;6.05;;;3.20;;
21941;SDS011;11135;54.192;15.670;2023-02-13T11:43:41;8.13;;;4.25;;
21941;SDS011;11135;54.192;15.670;2023-02-13T11:46:48;9.23;;;5.13;;
21941;SDS011;11135;54.192;15.670;2023-02-13T11:49:56;8.30;;;2.80;;
21941;SDS011;11135;54.192;15.670;2023-02-13T11:53:03;11.15;;;4.45;;
21941;SDS011;11135;54.192;15.670;2023-02-13T11:56:10;5.57;;;3.40;;
21941;SDS011;11135;54.192;15.670;2023-02-13T11:59:16;6.45;;;2.70;;
21941;SDS011;11135;54.192;15.670;2023-02-13T12:02:21;9.75;;;3.85;;
21941;SDS011;11135;54.192;15.670;2023-02-13T12:05:30;6.20;;;2.88;;
21941;SDS011;11135;54.192;15.670;2023-02-13T12:08:37;8.80;;;3.10;;
21941;SDS011;11135;54.192;15.670;2023-02-13T12:11:44;6.90;;;3.17;;
21941;SDS011;11135;54.192;15.670;2023-02-13T12:14:53;7.10;;;3.30;;
21941;SDS011;11135;54.192;15.670;2023-02-13T12:18:04;4.65;;;2.97;;
21941;SDS011;11135;54.192;15.670;2023-02-13T12:21:17;4.53;;;2.42;;
21941;SDS011;11135;54.192;15.670;2023-02-13T12:24:31;5.78;;;3.38;;
21941;SDS011;11135;54.192;15.670;2023-02-13T12:27:45;5.88;;;3.03;;
21941;SDS011;11135;54.192;15.670;2023-02-13T12:34:43;4.80;;;3.08;;
21941;SDS011;11135;54.192;15.670;2023-02-13T12:37:59;9.18;;;2.88;;
21941;SDS011;11135;54.192;15.670;2023-02-13T12:41:10;3.63;;;2.17;;
21941;SDS011;11135;54.192;15.670;2023-02-13T12:47:25;6.60;;;3.03;;
21941;SDS011;11135;54.192;15.670;2023-02-13T12:50:35;9.48;;;4.20;;
21941;SDS011;11135;54.192;15.670;2023-02-13T12:53:51;6.85;;;3.75;;
21941;SDS011;11135;54.192;15.670;2023-02-13T12:57:03;5.40;;;2.78;;
21941;SDS011;11135;54.192;15.670;2023-02-13T13:00:17;5.38;;;3.50;;
21941;SDS011;11135;54.192;15.670;2023-02-13T13:03:32;6.97;;;3.75;;
21941;SDS011;11135;54.192;15.670;2023-02-13T13:06:51;6.27;;;3.33;;
21941;SDS011;11135;54.192;15.670;2023-02-13T13:13:27;8.38;;;4.13;;
21941;SDS011;11135;54.192;15.670;2023-02-13T13:16:40;7.78;;;3.50;;
21941;SDS011;11135;54.192;15.670;2023-02-13T13:19:51;5.85;;;3.83;;
21941;SDS011;11135;54.192;15.670;2023-02-13T13:23:03;8.07;;;4.78;;
21941;SDS011;11135;54.192;15.670;2023-02-13T13:26:20;9.07;;;4.25;;
21941;SDS011;11135;54.192;15.670;2023-02-13T13:29:36;7.15;;;3.30;;
21941;SDS011;11135;54.192;15.670;2023-02-13T13:32:43;8.05;;;3.90;;
21941;SDS011;11135;54.192;15.670;2023-02-13T13:35:52;12.75;;;4.15;;
21941;SDS011;11135;54.192;15.670;2023-02-13T13:39:00;8.15;;;3.15;;
21941;SDS011;11135;54.192;15.670;2023-02-13T13:42:11;5.20;;;2.80;;
21941;SDS011;11135;54.192;15.670;2023-02-13T13:45:25;6.70;;;3.25;;
21941;SDS011;11135;54.192;15.670;2023-02-13T13:48:39;6.97;;;4.65;;
21941;SDS011;11135;54.192;15.670;2023-02-13T13:51:52;9.77;;;4.32;;
21941;SDS011;11135;54.192;15.670;2023-02-13T13:54:57;6.40;;;2.83;;
21941;SDS011;11135;54.192;15.670;2023-02-13T13:58:17;7.32;;;3.53;;
21941;SDS011;11135;54.192;15.670;2023-02-13T14:01:29;7.00;;;3.85;;
21941;SDS011;11135;54.192;15.670;2023-02-13T14:04:37;5.20;;;2.70;;
21941;SDS011;11135;54.192;15.670;2023-02-13T14:07:45;11.70;;;4.13;;
21941;SDS011;11135;54.192;15.670;2023-02-13T14:10:58;6.85;;;3.65;;
21941;SDS011;11135;54.192;15.670;2023-02-13T14:20:53;6.03;;;2.50;;
21941;SDS011;11135;54.192;15.670;2023-02-13T14:23:59;7.60;;;3.47;;
21941;SDS011;11135;54.192;15.670;2023-02-13T14:27:14;9.48;;;4.55;;
21941;SDS011;11135;54.192;15.670;2023-02-13T14:30:25;7.55;;;3.70;;
21941;SDS011;11135;54.192;15.670;2023-02-13T14:33:32;9.15;;;4.15;;
21941;SDS011;11135;54.192;15.670;2023-02-13T14:36:40;9.48;;;3.75;;
21941;SDS011;11135;54.192;15.670;2023-02-13T14:49:36;6.30;;;2.80;;
21941;SDS011;11135;54.192;15.670;2023-02-13T14:52:47;7.13;;;3.10;;
21941;SDS011;11135;54.192;15.670;2023-02-13T14:55:56;6.22;;;3.00;;
21941;SDS011;11135;54.192;15.670;2023-02-13T14:59:05;7.70;;;2.78;;
21941;SDS011;11135;54.192;15.670;2023-02-13T15:02:16;5.13;;;2.83;;
21941;SDS011;11135;54.192;15.670;2023-02-13T15:05:25;6.25;;;3.92;;
21941;SDS011;11135;54.192;15.670;2023-02-13T15:08:37;9.35;;;4.18;;
21941;SDS011;11135;54.192;15.670;2023-02-13T15:11:45;7.03;;;3.58;;
21941;SDS011;11135;54.192;15.670;2023-02-13T15:14:51;10.90;;;4.13;;
21941;SDS011;11135;54.192;15.670;2023-02-13T15:17:59;4.70;;;3.10;;
21941;SDS011;11135;54.192;15.670;2023-02-13T15:21:05;6.65;;;3.25;;
21941;SDS011;11135;54.192;15.670;2023-02-13T15:24:18;6.80;;;3.63;;
21941;SDS011;11135;54.192;15.670;2023-02-13T15:27:25;6.63;;;3.35;;
21941;SDS011;11135;54.192;15.670;2023-02-13T15:30:34;7.50;;;3.33;;
21941;SDS011;11135;54.192;15.670;2023-02-13T15:33:45;6.28;;;3.28;;
21941;SDS011;11135;54.192;15.670;2023-02-13T15:36:52;9.73;;;4.05;;
21941;SDS011;11135;54.192;15.670;2023-02-13T15:43:20;7.88;;;4.47;;
21941;SDS011;11135;54.192;15.670;2023-02-13T15:46:28;7.28;;;3.63;;
21941;SDS011;11135;54.192;15.670;2023-02-13T15:49:36;6.03;;;3.05;;
21941;SDS011;11135;54.192;15.670;2023-02-13T15:52:44;6.10;;;3.45;;
21941;SDS011;11135;54.192;15.670;2023-02-13T15:55:56;7.20;;;3.50;;
21941;SDS011;11135;54.192;15.670;2023-02-13T15:59:04;7.43;;;3.80;;
21941;SDS011;11135;54.192;15.670;2023-02-13T16:02:11;6.50;;;3.90;;
21941;SDS011;11135;54.192;15.670;2023-02-13T16:05:20;8.93;;;5.30;;
21941;SDS011;11135;54.192;15.670;2023-02-13T16:08:43;5.97;;;3.58;;
21941;SDS011;11135;54.192;15.670;2023-02-13T16:11:51;13.82;;;5.25;;
21941;SDS011;11135;54.192;15.670;2023-02-13T16:15:02;11.70;;;5.40;;
21941;SDS011;11135;54.192;15.670;2023-02-13T16:18:10;7.90;;;4.65;;
21941;SDS011;11135;54.192;15.670;2023-02-13T16:21:23;7.07;;;4.05;;
21941;SDS011;11135;54.192;15.670;2023-02-13T16:24:30;10.45;;;4.28;;
21941;SDS011;11135;54.192;15.670;2023-02-13T16:27:35;9.50;;;4.88;;
21941;SDS011;11135;54.192;15.670;2023-02-13T16:30:44;8.20;;;4.47;;
21941;SDS011;11135;54.192;15.670;2023-02-13T16:33:51;8.75;;;4.80;;
21941;SDS011;11135;54.192;15.670;2023-02-13T16:36:56;9.35;;;4.57;;
21941;SDS011;11135;54.192;15.670;2023-02-13T16:43:38;9.88;;;4.45;;
21941;SDS011;11135;54.192;15.670;2023-02-13T16:46:49;7.05;;;4.63;;
21941;SDS011;11135;54.192;15.670;2023-02-13T16:49:56;15.13;;;9.30;;
21941;SDS011;11135;54.192;15.670;2023-02-13T16:53:03;10.98;;;4.60;;
21941;SDS011;11135;54.192;15.670;2023-02-13T16:56:09;10.45;;;5.00;;
21941;SDS011;11135;54.192;15.670;2023-02-13T16:59:25;7.60;;;4.13;;
21941;SDS011;11135;54.192;15.670;2023-02-13T17:02:34;9.43;;;4.18;;
21941;SDS011;11135;54.192;15.670;2023-02-13T17:05:41;7.45;;;3.88;;
21941;SDS011;11135;54.192;15.670;2023-02-13T17:08:46;8.38;;;3.55;;
21941;SDS011;11135;54.192;15.670;2023-02-13T17:11:51;8.48;;;3.67;;
21941;SDS011;11135;54.192;15.670;2023-02-13T17:14:58;7.35;;;3.75;;
21941;SDS011;11135;54.192;15.670;2023-02-13T17:18:06;7.05;;;3.08;;
21941;SDS011;11135;54.192;15.670;2023-02-13T17:21:15;11.32;;;5.28;;
21941;SDS011;11135;54.192;15.670;2023-02-13T17:24:20;5.07;;;2.95;;
21941;SDS011;11135;54.192;15.670;2023-02-13T17:27:25;9.13;;;4.45;;
21941;SDS011;11135;54.192;15.670;2023-02-13T17:30:31;9.70;;;5.30;;
21941;SDS011;11135;54.192;15.670;2023-02-13T17:33:39;8.48;;;3.63;;
21941;SDS011;11135;54.192;15.670;2023-02-13T17:36:47;8.00;;;3.40;;
21941;SDS011;11135;54.192;15.670;2023-02-13T17:39:53;6.95;;;4.22;;
21941;SDS011;11135;54.192;15.670;2023-02-13T17:42:58;10.18;;;4.00;;
21941;SDS011;11135;54.192;15.670;2023-02-13T17:46:03;12.35;;;5.25;;
21941;SDS011;11135;54.192;15.670;2023-02-13T17:49:14;7.80;;;3.75;;
21941;SDS011;11135;54.192;15.670;2023-02-13T17:52:19;6.13;;;4.43;;
21941;SDS011;11135;54.192;15.670;2023-02-13T17:55:27;5.78;;;3.25;;
21941;SDS011;11135;54.192;15.670;2023-02-13T17:58:32;10.40;;;4.10;;
21941;SDS011;11135;54.192;15.670;2023-02-13T18:01:37;11.55;;;4.38;;
21941;SDS011;11135;54.192;15.670;2023-02-13T18:04:45;10.55;;;4.13;;
21941;SDS011;11135;54.192;15.670;2023-02-13T18:07:51;7.80;;;4.45;;
21941;SDS011;11135;54.192;15.670;2023-02-13T18:10:57;7.22;;;3.88;;
21941;SDS011;11135;54.192;15.670;2023-02-13T18:14:02;8.45;;;4.95;;
21941;SDS011;11135;54.192;15.670;2023-02-13T18:17:08;7.35;;;4.05;;
21941;SDS011;11135;54.192;15.670;2023-02-13T18:20:18;6.93;;;3.47;;
21941;SDS011;11135;54.192;15.670;2023-02-13T18:23:24;7.40;;;3.80;;
21941;SDS011;11135;54.192;15.670;2023-02-13T18:26:31;13.55;;;8.10;;
21941;SDS011;11135;54.192;15.670;2023-02-13T18:29:36;7.30;;;4.38;;
21941;SDS011;11135;54.192;15.670;2023-02-13T18:32:41;12.55;;;4.28;;
21941;SDS011;11135;54.192;15.670;2023-02-13T18:35:53;11.63;;;7.18;;
21941;SDS011;11135;54.192;15.670;2023-02-13T18:39:01;12.30;;;6.43;;
21941;SDS011;11135;54.192;15.670;2023-02-13T18:42:11;9.10;;;4.10;;
21941;SDS011;11135;54.192;15.670;2023-02-13T18:45:18;10.25;;;5.10;;
21941;SDS011;11135;54.192;15.670;2023-02-13T18:48:28;8.27;;;3.90;;
21941;SDS011;11135;54.192;15.670;2023-02-13T18:51:36;10.25;;;5.07;;
21941;SDS011;11135;54.192;15.670;2023-02-13T18:54:43;10.35;;;5.35;;
21941;SDS011;11135;54.192;15.670;2023-02-13T18:57:50;15.55;;;5.40;;
21941;SDS011;11135;54.192;15.670;2023-02-13T19:01:03;8.63;;;3.90;;
21941;SDS011;11135;54.192;15.670;2023-02-13T19:04:08;6.20;;;4.05;;
21941;SDS011;11135;54.192;15.670;2023-02-13T19:07:17;8.07;;;4.50;;
21941;SDS011;11135;54.192;15.670;2023-02-13T19:10:25;9.60;;;4.65;;
21941;SDS011;11135;54.192;15.670;2023-02-13T19:13:31;11.43;;;5.10;;
21941;SDS011;11135;54.192;15.670;2023-02-13T19:16:38;8.10;;;4.00;;
21941;SDS011;11135;54.192;15.670;2023-02-13T19:19:43;10.05;;;5.07;;
21941;SDS011;11135;54.192;15.670;2023-02-13T19:22:52;18.23;;;8.38;;